createdAt,value
2023-04-18T00:01:29.552Z,100997.08
2023-04-18T00:03:58.417Z,100994.14
2023-04-18T00:06:27.040Z,100998.75
2023-04-18T00:08:55.530Z,100999.05
2023-04-18T00:11:23.898Z,100994.80
2023-04-18T00:13:52.374Z,100988.59
2023-04-18T00:16:21.187Z,100988.13
2023-04-18T00:18:49.863Z,100990.99
2023-04-18T00:21:18.129Z,100993.65
2023-04-18T00:23:46.567Z,100994.46
2023-04-18T00:26:14.893Z,100998.30
2023-04-18T00:28:43.264Z,100997.23
2023-04-18T00:31:11.664Z,100994.33
2023-04-18T00:33:40.120Z,100990.27
2023-04-18T00:36:08.605Z,100993.55
2023-04-18T00:38:36.892Z,100991.35
2023-04-18T00:41:05.574Z,100994.78
2023-04-18T00:43:35.396Z,100996.41
2023-04-18T00:46:03.913Z,100991.35
2023-04-18T00:48:32.446Z,100986.67
2023-04-18T00:51:01.135Z,100982.08
2023-04-18T00:53:29.818Z,100977.46
2023-04-18T00:55:58.103Z,100975.73
2023-04-18T00:58:26.898Z,100974.34
2023-04-18T01:00:55.266Z,100967.17
2023-04-18T01:03:24.383Z,100957.08
2023-04-18T01:05:56.275Z,100954.89
2023-04-18T01:08:25.215Z,100953.54
2023-04-18T01:10:53.497Z,100949.19
2023-04-18T01:13:21.768Z,100947.32
2023-04-18T01:15:51.262Z,100946.13
2023-04-18T01:18:21.103Z,100939.66
2023-04-18T01:20:51.136Z,100936.27
2023-04-18T01:23:19.996Z,100937.54
2023-04-18T01:25:51.968Z,100937.68
2023-04-18T01:28:24.162Z,100941.44
2023-04-18T01:30:52.661Z,100937.27
2023-04-18T01:33:21.307Z,100936.77
2023-04-18T01:35:50.398Z,100938.43
2023-04-18T01:38:18.977Z,100937.33
2023-04-18T01:40:47.779Z,100937.20
2023-04-18T01:43:16.046Z,100932.83
2023-04-18T01:45:44.421Z,100927.35
2023-04-18T01:48:12.801Z,100927.00
2023-04-18T01:50:41.187Z,100928.31
2023-04-18T01:53:09.571Z,100928.52
2023-04-18T01:55:37.943Z,100925.02
2023-04-18T01:58:06.215Z,100923.42
2023-04-18T02:00:34.764Z,100928.42
2023-04-18T02:03:03.419Z,100924.70
2023-04-18T02:05:31.971Z,100925.79
2023-04-18T02:08:00.284Z,100926.15
2023-04-18T02:10:28.624Z,100920.86
2023-04-18T02:12:57.029Z,100926.48
2023-04-18T02:15:25.642Z,100930.06
2023-04-18T02:17:54.030Z,100929.94
2023-04-18T02:20:22.566Z,100926.46
2023-04-18T02:22:50.830Z,100920.21
2023-04-18T02:25:19.416Z,100917.57
2023-04-18T02:27:47.590Z,100920.45
2023-04-18T02:30:16.379Z,100920.36
2023-04-18T02:32:44.602Z,100916.77
2023-04-18T02:35:13.767Z,100918.19
2023-04-18T02:37:42.137Z,100918.32
2023-04-18T02:40:11.144Z,100917.91
2023-04-18T02:42:39.504Z,100914.75
2023-04-18T02:45:09.016Z,100916.61
2023-04-18T02:47:46.993Z,100912.61
2023-04-18T02:50:20.106Z,100910.04
2023-04-18T02:52:48.590Z,100911.98
2023-04-18T02:55:17.272Z,100915.55
2023-04-18T02:57:45.764Z,100910.46
2023-04-18T03:00:14.908Z,100910.59
2023-04-18T03:02:43.332Z,100905.70
2023-04-18T03:05:12.517Z,100904.06
2023-04-18T03:07:40.920Z,100903.06
2023-04-18T03:10:10.011Z,100902.05
2023-04-18T03:12:38.388Z,100905.27
2023-04-18T03:15:07.729Z,100914.34
2023-04-18T03:17:36.901Z,100918.58
2023-04-18T03:20:06.036Z,100920.42
2023-04-18T03:22:34.254Z,100921.56
2023-04-18T03:25:02.741Z,100919.45
2023-04-18T03:27:31.124Z,100919.84
2023-04-18T03:29:59.600Z,100916.77
2023-04-18T03:32:28.025Z,100919.61
2023-04-18T03:34:56.566Z,100921.08
2023-04-18T03:37:25.125Z,100919.63
2023-04-18T03:39:53.424Z,100918.45
2023-04-18T03:42:21.803Z,100914.86
2023-04-18T03:44:50.181Z,100916.44
2023-04-18T03:47:18.676Z,100921.40
2023-04-18T03:49:47.149Z,100930.27
2023-04-18T03:52:16.238Z,100938.89
2023-04-18T03:54:44.628Z,100950.58
2023-04-18T03:57:13.216Z,100958.02
2023-04-18T03:59:42.205Z,100954.81
2023-04-18T04:02:10.518Z,100955.05
2023-04-18T04:04:39.204Z,100954.37
2023-04-18T04:07:07.654Z,100956.70
2023-04-18T04:09:36.045Z,100958.79
2023-04-18T04:12:04.920Z,100959.16
2023-04-18T04:14:33.819Z,100958.16
2023-04-18T04:17:02.398Z,100961.29
2023-04-18T04:19:30.684Z,100966.81
2023-04-18T04:21:59.051Z,100966.33
2023-04-18T04:24:29.379Z,100968.08
2023-04-18T04:26:59.192Z,100972.05
2023-04-18T04:29:29.302Z,100972.45
2023-04-18T04:31:57.622Z,100975.47
2023-04-18T04:34:26.164Z,100976.39
2023-04-18T04:36:55.366Z,100977.16
2023-04-18T04:39:23.646Z,100980.21
2023-04-18T04:41:53.769Z,100976.50
2023-04-18T04:44:22.509Z,100974.54
2023-04-18T04:46:50.928Z,100973.34
2023-04-18T04:49:19.203Z,100973.20
2023-04-18T04:51:47.588Z,100975.73
2023-04-18T04:54:16.336Z,100979.76
2023-04-18T04:56:45.070Z,100980.95
2023-04-18T04:59:13.576Z,100980.66
2023-04-18T05:01:42.166Z,100985.61
2023-04-18T05:04:10.551Z,100986.91
2023-04-18T05:06:40.264Z,100988.38
2023-04-18T05:09:09.012Z,100990.67
2023-04-18T05:11:37.391Z,100990.73
2023-04-18T05:14:05.901Z,100992.20
2023-04-18T05:16:34.252Z,100998.00
2023-04-18T05:19:02.641Z,101002.16
2023-04-18T05:21:31.749Z,101000.48
2023-04-18T05:24:00.310Z,101004.02
2023-04-18T05:26:28.792Z,101006.71
2023-04-18T05:28:57.165Z,101010.70
2023-04-18T05:31:27.141Z,101016.33
2023-04-18T05:33:55.462Z,101016.40
2023-04-18T05:36:23.858Z,101019.71
2023-04-18T05:38:52.245Z,101023.95
2023-04-18T05:41:20.822Z,101026.86
2023-04-18T05:43:58.150Z,101029.80
2023-04-18T05:46:33.514Z,101029.21
2023-04-18T05:49:02.445Z,101031.91
2023-04-18T05:51:31.465Z,101035.47
2023-04-18T05:54:00.136Z,101041.54
2023-04-18T05:56:28.408Z,101047.63
2023-04-18T05:58:56.773Z,101049.94
2023-04-18T06:01:25.259Z,101048.58
2023-04-18T06:03:55.664Z,101050.36
2023-04-18T06:06:26.616Z,101050.75
2023-04-18T06:08:55.202Z,101051.67
2023-04-18T06:11:23.583Z,101049.30
2023-04-18T06:13:51.962Z,101047.97
2023-04-18T06:16:20.497Z,101048.90
2023-04-18T06:18:48.863Z,101046.77
2023-04-18T06:21:17.305Z,101047.49
2023-04-18T06:23:45.783Z,101042.25
2023-04-18T06:26:14.575Z,101038.73
2023-04-18T06:28:42.965Z,101035.53
2023-04-18T06:31:11.538Z,101033.81
2023-04-18T06:33:40.122Z,101029.98
2023-04-18T06:36:09.654Z,101027.40
2023-04-18T06:38:38.021Z,101027.27
2023-04-18T06:41:06.373Z,101027.89
2023-04-18T06:43:36.403Z,101026.66
2023-04-18T06:46:06.099Z,101028.69
2023-04-18T06:48:34.702Z,101028.42
2023-04-18T06:51:03.506Z,101031.30
2023-04-18T06:53:31.765Z,101032.58
2023-04-18T06:56:00.252Z,101035.66
2023-04-18T06:58:28.728Z,101037.88
2023-04-18T07:00:57.277Z,101038.81
2023-04-18T07:03:25.772Z,101040.58
2023-04-18T07:05:55.810Z,101036.67
2023-04-18T07:08:23.998Z,101032.24
2023-04-18T07:10:52.363Z,101033.02
2023-04-18T07:13:20.850Z,101031.80
2023-04-18T07:15:49.338Z,101035.27
2023-04-18T07:18:30.227Z,101035.83
2023-04-18T07:21:09.507Z,101039.35
2023-04-18T07:23:38.015Z,101042.77
2023-04-18T07:26:06.294Z,101039.92
2023-04-18T07:28:34.780Z,101043.16
2023-04-18T07:31:03.971Z,101043.45
2023-04-18T07:33:34.096Z,101046.86
2023-04-18T07:36:03.412Z,101052.20
2023-04-18T07:38:31.979Z,101055.81
2023-04-18T07:41:01.488Z,101057.23
2023-04-18T07:43:29.996Z,101059.91
2023-04-18T07:45:58.363Z,101061.14
2023-04-18T07:48:27.141Z,101056.40
2023-04-18T07:50:55.421Z,101056.67
2023-04-18T07:53:23.824Z,101055.63
2023-04-18T07:55:52.182Z,101057.98
2023-04-18T07:58:21.287Z,101059.03
2023-04-18T08:00:49.755Z,101060.19
2023-04-18T08:03:18.400Z,101055.98
2023-04-18T08:05:47.227Z,101057.80
2023-04-18T08:08:15.505Z,101054.54
2023-04-18T08:10:43.883Z,101059.15
2023-04-18T08:13:15.126Z,101059.16
2023-04-18T08:15:43.549Z,101059.60
2023-04-18T08:18:12.096Z,101062.00
2023-04-18T08:20:41.383Z,101061.33
2023-04-18T08:23:12.186Z,101057.50
2023-04-18T08:25:41.737Z,101055.79
2023-04-18T08:28:11.024Z,101053.45
2023-04-18T08:30:39.318Z,101056.48
2023-04-18T08:33:07.897Z,101049.75
2023-04-18T08:35:36.378Z,101053.82
2023-04-18T08:38:04.759Z,101053.26
2023-04-18T08:40:33.140Z,101048.77
2023-04-18T08:43:05.153Z,101051.58
2023-04-18T08:45:34.574Z,101057.63
2023-04-18T08:48:03.996Z,101059.33
2023-04-18T08:50:32.597Z,101057.75
2023-04-18T08:53:03.843Z,101067.68
2023-04-18T08:55:33.859Z,101064.16
2023-04-18T08:58:03.056Z,101057.13
2023-04-18T09:00:31.435Z,101065.88
2023-04-18T09:03:00.181Z,101066.50
2023-04-18T09:05:28.612Z,101073.23
2023-04-18T09:07:57.198Z,101070.02
2023-04-18T09:10:33.985Z,101067.02
2023-04-18T09:13:10.332Z,101064.98
2023-04-18T09:15:38.608Z,101062.16
2023-04-18T09:18:10.703Z,101062.65
2023-04-18T09:20:43.997Z,101061.45
2023-04-18T09:23:16.749Z,101060.80
2023-04-18T09:25:49.281Z,101056.46
2023-04-18T09:28:32.061Z,101056.89
2023-04-18T09:31:12.156Z,101052.76
2023-04-18T09:33:44.981Z,101051.79
2023-04-18T09:36:16.947Z,101052.96
2023-04-18T09:38:45.736Z,101053.30
2023-04-18T09:41:20.055Z,101049.73
2023-04-18T09:43:49.898Z,101049.48
2023-04-18T09:46:18.645Z,101044.96
2023-04-18T09:48:47.166Z,101046.36
2023-04-18T09:51:17.007Z,101047.34
2023-04-18T09:53:47.935Z,101042.86
2023-04-18T09:56:26.281Z,101041.39
2023-04-18T09:59:07.082Z,101043.40
2023-04-18T10:01:36.004Z,101040.88
2023-04-18T10:04:07.000Z,101045.73
2023-04-18T10:06:42.248Z,101039.36
2023-04-18T10:09:11.297Z,101041.39
2023-04-18T10:11:40.183Z,101036.14
2023-04-18T10:14:10.692Z,101033.01
2023-04-18T10:16:39.612Z,101031.15
2023-04-18T10:19:30.534Z,101035.48
2023-04-18T10:22:00.678Z,101033.40
2023-04-18T10:24:48.616Z,101032.96
2023-04-18T10:27:18.057Z,101038.93
2023-04-18T10:29:50.611Z,101041.64
2023-04-18T10:32:22.273Z,101041.31
2023-04-18T10:34:50.844Z,101044.27
2023-04-18T10:37:19.341Z,101043.07
2023-04-18T10:40:00.372Z,101046.04
2023-04-18T10:42:58.482Z,101035.27
2023-04-18T10:45:29.214Z,101038.12
2023-04-18T10:48:24.434Z,101035.74
2023-04-18T10:51:12.461Z,101037.42
2023-04-18T10:53:49.426Z,101034.77
2023-04-18T10:56:18.132Z,101035.10
2023-04-18T10:58:53.476Z,101033.77
2023-04-18T11:01:32.750Z,101035.42
2023-04-18T11:04:01.770Z,101030.90
2023-04-18T11:06:31.641Z,101031.56
2023-04-18T11:09:12.800Z,101030.93
2023-04-18T11:11:42.000Z,101029.87
2023-04-18T11:14:11.014Z,101028.77
2023-04-18T11:16:40.535Z,101032.46
2023-04-18T11:19:23.964Z,101036.64
2023-04-18T11:21:52.431Z,101034.90
2023-04-18T11:24:23.498Z,101032.23
2023-04-18T11:26:56.199Z,101037.64
2023-04-18T11:29:24.623Z,101026.02
2023-04-18T11:31:56.006Z,101029.44
2023-04-18T11:34:32.128Z,101028.06
2023-04-18T11:37:00.612Z,101027.41
2023-04-18T11:39:29.131Z,101026.99
2023-04-18T11:41:59.644Z,101020.10
2023-04-18T11:44:28.317Z,101019.63
2023-04-18T11:46:57.004Z,101017.94
2023-04-18T11:49:32.641Z,101013.77
2023-04-18T11:52:01.845Z,101019.13
2023-04-18T11:54:44.347Z,101019.86
2023-04-18T11:57:21.634Z,101016.27
2023-04-18T11:59:58.132Z,101011.83
2023-04-18T12:02:38.342Z,101011.24
2023-04-18T12:05:08.023Z,101007.76
2023-04-18T12:07:40.653Z,101016.60
2023-04-18T12:10:24.475Z,101012.36
2023-04-18T12:12:55.545Z,101020.54
2023-04-18T12:15:27.400Z,101016.27
2023-04-18T12:18:00.953Z,101017.26
2023-04-18T12:20:38.003Z,101011.25
2023-04-18T12:23:06.975Z,101008.61
2023-04-18T12:25:35.362Z,101016.58
2023-04-18T12:28:18.778Z,101015.20
2023-04-18T12:30:46.997Z,101009.56
2023-04-18T12:33:15.435Z,101010.48
2023-04-18T12:35:43.936Z,101006.05
2023-04-18T12:38:12.297Z,101003.48
2023-04-18T12:40:41.302Z,101010.75
2023-04-18T12:43:17.215Z,101010.40
2023-04-18T12:45:46.669Z,101010.19
2023-04-18T12:48:15.043Z,101011.38
2023-04-18T12:50:43.428Z,101012.73
2023-04-18T12:53:11.794Z,101011.82
2023-04-18T12:55:40.272Z,101006.44
2023-04-18T12:58:08.662Z,101006.34
2023-04-18T13:00:37.693Z,101008.79
2023-04-18T13:03:06.771Z,101008.64
2023-04-18T13:05:35.736Z,101003.56
2023-04-18T13:08:16.334Z,101005.45
2023-04-18T13:10:48.986Z,101008.42
2023-04-18T13:13:17.587Z,101010.17
2023-04-18T13:15:46.153Z,101012.14
2023-04-18T13:18:14.547Z,101012.67
2023-04-18T13:20:44.344Z,101014.41
2023-04-18T13:23:12.729Z,101013.48
2023-04-18T13:25:41.115Z,101020.23
2023-04-18T13:28:09.487Z,101022.36
2023-04-18T13:30:37.973Z,101019.66
2023-04-18T13:33:06.879Z,101019.62
2023-04-18T13:35:36.570Z,101023.88
2023-04-18T13:38:04.738Z,101024.02
2023-04-18T13:40:33.838Z,101026.26
2023-04-18T13:43:02.260Z,101022.96
2023-04-18T13:45:30.720Z,101027.42
2023-04-18T13:47:59.430Z,101019.84
2023-04-18T13:50:27.968Z,101023.94
2023-04-18T13:52:56.282Z,101016.65
2023-04-18T13:55:24.735Z,101020.64
2023-04-18T13:57:53.220Z,101016.20
2023-04-18T14:00:21.900Z,101014.13
2023-04-18T14:02:50.383Z,101008.33
2023-04-18T14:05:19.165Z,101002.89
2023-04-18T14:07:48.886Z,101008.48
2023-04-18T14:10:17.290Z,101007.14
2023-04-18T14:12:45.943Z,101008.56
2023-04-18T14:15:14.330Z,101004.83
2023-04-18T14:17:44.840Z,101005.90
2023-04-18T14:20:19.593Z,101003.58
2023-04-18T14:22:52.305Z,101001.85
2023-04-18T14:25:22.918Z,100999.33
2023-04-18T14:28:05.451Z,100997.64
2023-04-18T14:30:33.685Z,100995.52
2023-04-18T14:33:02.291Z,100994.80
2023-04-18T14:35:31.873Z,100988.95
2023-04-18T14:38:00.260Z,100991.27
2023-04-18T14:40:29.862Z,100990.40
2023-04-18T14:42:59.201Z,100990.80
2023-04-18T14:45:28.170Z,100989.83
2023-04-18T14:47:56.363Z,100984.21
2023-04-18T14:50:24.818Z,100981.83
2023-04-18T14:52:53.196Z,100982.06
2023-04-18T14:55:21.585Z,100982.11
2023-04-18T14:57:50.077Z,100978.16
2023-04-18T15:00:19.384Z,100975.40
2023-04-18T15:02:48.032Z,100974.89
2023-04-18T15:05:18.063Z,100971.76
2023-04-18T15:07:47.254Z,100970.77
2023-04-18T15:10:15.836Z,100971.23
2023-04-18T15:12:44.526Z,100973.45
2023-04-18T15:15:13.619Z,100972.29
2023-04-18T15:17:41.976Z,100974.05
2023-04-18T15:20:10.893Z,100972.41
2023-04-18T15:22:39.168Z,100964.13
2023-04-18T15:25:08.468Z,100966.56
2023-04-18T15:27:36.653Z,100967.81
2023-04-18T15:30:05.859Z,100971.23
2023-04-18T15:32:34.192Z,100971.67
2023-04-18T15:35:03.437Z,100969.71
2023-04-18T15:37:31.599Z,100965.45
2023-04-18T15:40:00.694Z,100969.84
2023-04-18T15:42:30.620Z,100969.10
2023-04-18T15:44:58.808Z,100971.84
2023-04-18T15:47:27.500Z,100968.54
2023-04-18T15:49:56.288Z,100973.31
2023-04-18T15:52:24.636Z,100971.14
2023-04-18T15:54:52.931Z,100972.16
2023-04-18T15:57:22.109Z,100969.90
2023-04-18T15:59:50.592Z,100970.18
2023-04-18T16:02:19.032Z,100970.54
2023-04-18T16:04:47.496Z,100971.16
2023-04-18T16:07:17.370Z,100965.80
2023-04-18T16:09:45.766Z,100966.05
2023-04-18T16:12:14.336Z,100971.83
2023-04-18T16:14:42.764Z,100969.60
2023-04-18T16:17:11.405Z,100967.95
2023-04-18T16:19:41.317Z,100971.81
2023-04-18T16:22:10.831Z,100975.22
2023-04-18T16:24:41.548Z,100973.97
2023-04-18T16:27:10.345Z,100974.70
2023-04-18T16:29:38.846Z,100974.84
2023-04-18T16:32:07.203Z,100977.34
2023-04-18T16:34:35.683Z,100981.34
2023-04-18T16:37:04.181Z,100979.60
2023-04-18T16:39:32.657Z,100979.08
2023-04-18T16:42:01.645Z,100980.17
2023-04-18T16:44:31.155Z,100980.02
2023-04-18T16:46:59.489Z,100978.27
2023-04-18T16:49:28.031Z,100981.01
2023-04-18T16:51:56.296Z,100982.64
2023-04-18T16:54:24.786Z,100981.14
2023-04-18T16:56:53.700Z,100981.11
2023-04-18T16:59:22.172Z,100987.10
2023-04-18T17:01:50.627Z,100984.52
2023-04-18T17:04:19.284Z,100982.73
2023-04-18T17:06:48.139Z,100986.70
2023-04-18T17:09:17.403Z,100988.63
2023-04-18T17:11:46.205Z,100988.17
2023-04-18T17:14:14.821Z,100986.94
2023-04-18T17:16:43.778Z,100990.91
2023-04-18T17:19:12.532Z,100994.41
2023-04-18T17:21:41.149Z,100996.25
2023-04-18T17:24:10.170Z,100998.75
2023-04-18T17:26:39.151Z,100999.31
2023-04-18T17:29:07.730Z,100998.64
2023-04-18T17:31:36.969Z,101000.58
2023-04-18T17:34:06.301Z,101003.59
2023-04-18T17:36:34.700Z,101001.88
2023-04-18T17:39:06.666Z,101000.32
2023-04-18T17:41:39.250Z,101001.65
2023-04-18T17:44:08.689Z,100999.05
2023-04-18T17:46:37.307Z,101003.55
2023-04-18T17:49:05.904Z,101002.86
2023-04-18T17:51:34.501Z,101007.56
2023-04-18T17:54:03.209Z,101006.39
2023-04-18T17:56:31.762Z,101007.29
2023-04-18T17:59:00.164Z,101004.67
2023-04-18T18:01:30.656Z,101003.58
2023-04-18T18:03:59.161Z,101003.98
2023-04-18T18:06:28.156Z,100985.98
2023-04-18T18:08:57.040Z,100969.80
2023-04-18T18:11:27.467Z,100969.18
2023-04-18T18:13:57.744Z,100990.80
2023-04-18T18:16:26.617Z,100987.82
2023-04-18T18:18:54.961Z,100987.46
2023-04-18T18:21:23.440Z,100983.67
2023-04-18T18:23:51.825Z,100983.80
2023-04-18T18:26:20.200Z,100979.65
2023-04-18T18:28:48.806Z,100978.11
2023-04-18T18:31:18.020Z,100979.63
2023-04-18T18:33:46.317Z,100975.73
2023-04-18T18:36:14.741Z,100976.11
2023-04-18T18:38:43.433Z,100972.35
2023-04-18T18:41:11.907Z,100976.38
2023-04-18T18:43:40.495Z,100979.91
2023-04-18T18:46:09.456Z,100982.47
2023-04-18T18:48:39.501Z,100985.39
2023-04-18T18:51:08.603Z,100985.47
2023-04-18T18:53:38.402Z,100982.89
2023-04-18T18:56:09.145Z,100984.52
2023-04-18T18:58:37.526Z,100981.30
2023-04-18T19:01:06.940Z,100984.75
2023-04-18T19:03:35.256Z,100983.84
2023-04-18T19:06:04.711Z,100986.10
2023-04-18T19:08:33.193Z,100986.16
2023-04-18T19:11:01.472Z,100985.52
2023-04-18T19:13:29.967Z,100981.70
2023-04-18T19:15:58.762Z,100979.39
2023-04-18T19:18:27.738Z,100978.48
2023-04-18T19:20:56.528Z,100976.58
2023-04-18T19:23:25.630Z,100982.02
2023-04-18T19:25:54.002Z,100982.77
2023-04-18T19:28:23.203Z,100986.29
2023-04-18T19:30:51.478Z,100986.27
2023-04-18T19:33:20.887Z,100988.28
2023-04-18T19:35:49.192Z,100986.95
2023-04-18T19:38:17.543Z,100980.48
2023-04-18T19:40:46.336Z,100977.23
2023-04-18T19:43:14.707Z,100973.24
2023-04-18T19:45:43.021Z,100970.72
2023-04-18T19:48:12.092Z,100967.67
2023-04-18T19:50:40.896Z,100964.64
2023-04-18T19:53:09.459Z,100961.77
2023-04-18T19:55:38.562Z,100959.14
2023-04-18T19:58:07.168Z,100955.97
2023-04-18T20:00:35.509Z,100950.77
2023-04-18T20:03:04.201Z,100948.06
2023-04-18T20:05:33.784Z,100949.48
2023-04-18T20:08:02.303Z,100950.09
2023-04-18T20:10:30.874Z,100945.82
2023-04-18T20:12:59.254Z,100946.89
2023-04-18T20:15:30.627Z,100943.59
2023-04-18T20:17:59.740Z,100935.25
2023-04-18T20:20:28.407Z,100928.33
2023-04-18T20:22:56.662Z,100922.34
2023-04-18T20:25:25.551Z,100927.45
2023-04-18T20:27:53.929Z,100929.66
2023-04-18T20:30:22.870Z,100928.48
2023-04-18T20:32:51.551Z,100930.30
2023-04-18T20:35:20.415Z,100926.59
2023-04-18T20:37:50.004Z,100922.68
2023-04-18T20:40:18.920Z,100918.58
2023-04-18T20:42:47.585Z,100914.49
2023-04-18T20:45:15.866Z,100916.27
2023-04-18T20:47:44.315Z,100916.35
2023-04-18T20:50:14.360Z,100919.29
2023-04-18T20:52:43.068Z,100917.77
2023-04-18T20:55:11.532Z,100914.86
2023-04-18T20:57:40.009Z,100910.14
2023-04-18T21:00:10.643Z,100908.27
2023-04-18T21:02:39.051Z,100908.00
2023-04-18T21:05:09.087Z,100904.29
2023-04-18T21:07:37.349Z,100900.52
2023-04-18T21:10:06.435Z,100894.27
2023-04-18T21:12:34.909Z,100890.41
2023-04-18T21:15:05.694Z,100890.95
2023-04-18T21:17:34.010Z,100886.74
2023-04-18T21:20:02.407Z,100883.20
2023-04-18T21:22:30.874Z,100885.08
2023-04-18T21:24:59.066Z,100887.75
2023-04-18T21:27:27.424Z,100887.15
2023-04-18T21:29:56.214Z,100889.55
2023-04-18T21:32:24.622Z,100888.13
2023-04-18T21:34:53.078Z,100890.48
2023-04-18T21:37:21.555Z,100886.66
2023-04-18T21:39:50.138Z,100885.40
2023-04-18T21:42:18.628Z,100886.69
2023-04-18T21:44:46.901Z,100887.07
2023-04-18T21:47:15.386Z,100885.89
2023-04-18T21:49:43.760Z,100888.46
2023-04-18T21:52:12.136Z,100888.06
2023-04-18T21:54:40.520Z,100890.95
2023-04-18T21:57:08.904Z,100890.88
2023-04-18T21:59:37.278Z,100884.20
2023-04-18T22:02:05.733Z,100877.74
2023-04-18T22:04:35.010Z,100878.41
2023-04-18T22:07:03.346Z,100874.91
2023-04-18T22:09:34.117Z,100872.02
2023-04-18T22:12:03.894Z,100869.39
2023-04-18T22:14:35.479Z,100873.01
2023-04-18T22:17:05.163Z,100869.48
2023-04-18T22:19:33.632Z,100872.45
2023-04-18T22:22:02.153Z,100870.95
2023-04-18T22:24:30.808Z,100869.17
2023-04-18T22:26:59.801Z,100865.83
2023-04-18T22:29:28.081Z,100863.53
2023-04-18T22:31:56.446Z,100859.48
2023-04-18T22:34:24.833Z,100856.92
2023-04-18T22:36:53.208Z,100850.45
2023-04-18T22:39:21.593Z,100851.58
2023-04-18T22:41:49.966Z,100847.48
2023-04-18T22:44:18.281Z,100843.89
2023-04-18T22:46:48.388Z,100841.90
2023-04-18T22:49:18.281Z,100844.77
2023-04-18T22:51:46.763Z,100838.38
2023-04-18T22:54:15.419Z,100837.36
2023-04-18T22:56:44.139Z,100836.54
2023-04-18T22:59:12.520Z,100829.70
2023-04-18T23:01:40.955Z,100829.12
2023-04-18T23:04:09.546Z,100831.13
2023-04-18T23:06:39.086Z,100830.66
2023-04-18T23:09:09.800Z,100831.67
2023-04-18T23:11:37.921Z,100825.16
2023-04-18T23:14:06.790Z,100825.83
2023-04-18T23:16:35.271Z,100822.71
2023-04-18T23:19:06.422Z,100818.65
2023-04-18T23:21:34.894Z,100814.02
2023-04-18T23:24:03.273Z,100810.33
2023-04-18T23:26:31.547Z,100807.91
2023-04-18T23:29:00.112Z,100802.84
2023-04-18T23:31:28.649Z,100803.21
2023-04-18T23:33:57.208Z,100799.24
2023-04-18T23:36:26.705Z,100800.39
2023-04-18T23:38:54.984Z,100799.95
2023-04-18T23:41:23.360Z,100799.15
2023-04-18T23:43:51.949Z,100794.71
2023-04-18T23:46:20.356Z,100790.31
2023-04-18T23:48:48.705Z,100790.91
2023-04-18T23:51:17.083Z,100790.11
2023-04-18T23:53:45.378Z,100784.70
2023-04-18T23:56:14.151Z,100779.23
2023-04-18T23:58:42.328Z,100773.08
